Time;durP1;ratioP1;P1;durP2;ratioP2;P2;SDS_P1;SDS_P2;PMS_P1;PMS_P2;Temp;Humidity;BMP_temperature;BMP_pressure;BME280_temperature;BME280_humidity;BME280_pressure;Samples;Min_cycle;Max_cycle;Signal;HPM_P1;HPM_P2
2021/01/02 00:02:51;;;;;;;77.67;34.03;;;;;;;0.14;83.96;98552.26;2177052;81;21157;-90
2021/01/02 00:05:53;;;;;;;82.55;34.45;;;;;;;0.13;83.81;98552.73;2177164;81;21294;-91
2021/01/02 00:08:54;;;;;;;66.45;28.47;;;;;;;0.15;84.01;98549.56;2150549;81;21204;-89
2021/01/02 00:11:55;;;;;;;77.87;33.35;;;;;;;0.14;83.90;98552.26;2149584;82;21175;-89
2021/01/02 00:14:57;;;;;;;80.07;33.48;;;;;;;0.12;83.88;98554.95;2149624;82;21136;-90
2021/01/02 00:17:58;;;;;;;78.17;33.10;;;;;;;0.11;83.75;98557.19;2057242;86;21307;-90
2021/01/02 00:21:00;;;;;;;75.45;32.98;;;;;;;0.17;83.93;98563.13;2150241;82;21180;-90
2021/01/02 00:24:02;;;;;;;71.30;30.02;;;;;;;0.26;84.10;98567.57;2057321;86;21365;-92
2021/01/02 00:27:03;;;;;;;74.77;32.60;;;;;;;0.25;83.74;98574.95;2150443;82;21190;-90
2021/01/02 00:30:05;;;;;;;81.32;33.38;;;;;;;0.23;83.75;98576.02;2150118;82;21200;-89
2021/01/02 00:33:07;;;;;;;81.97;34.18;;;;;;;0.20;83.75;98580.94;2057291;87;21180;-89
2021/01/02 00:36:08;;;;;;;77.95;34.53;;;;;;;0.14;83.67;98572.39;2150114;82;21187;-90
2021/01/02 00:39:10;;;;;;;81.05;34.75;;;;;;;0.16;83.80;98579.52;2150422;83;21175;-90
2021/01/02 00:42:11;;;;;;;74.30;31.77;;;;;;;0.11;83.66;98577.78;2150638;82;21323;-90
2021/01/02 00:45:13;;;;;;;83.85;36.20;;;;;;;0.07;83.65;98587.95;2150219;83;21742;-90
2021/01/02 00:48:15;;;;;;;76.17;33.02;;;;;;;0.04;83.84;98586.08;2150127;82;21152;-90
2021/01/02 00:51:16;;;;;;;84.83;32.48;;;;;;;0.08;83.81;98592.63;2150591;82;21265;-90
2021/01/02 00:54:21;;;;;;;68.65;29.20;;;;;;;0.05;83.67;98600.59;2057231;86;21395;-90
2021/01/02 00:57:23;;;;;;;87.57;33.00;;;;;;;0.04;83.80;98597.20;2150297;83;21557;-90
2021/01/02 01:00:25;;;;;;;84.95;33.28;;;;;;;0.06;83.92;98606.91;2150241;82;21584;-91
2021/01/02 01:03:26;;;;;;;83.42;34.92;;;;;;;0.05;83.80;98619.42;2057123;86;21187;-90
2021/01/02 01:06:28;;;;;;;76.80;34.03;;;;;;;0.07;83.98;98621.41;2150652;82;21326;-91
2021/01/02 01:09:29;;;;;;;69.22;32.75;;;;;;;0.15;84.06;98622.13;2057097;86;21200;-90
2021/01/02 01:12:31;;;;;;;87.78;37.40;;;;;;;0.18;84.01;98622.73;2156739;82;21321;-90
2021/01/02 01:15:32;;;;;;;73.55;31.37;;;;;;;0.18;83.77;98621.45;2063992;85;21162;-90
2021/01/02 01:18:34;;;;;;;69.42;31.23;;;;;;;0.16;83.48;98622.47;2156839;82;21329;-90
2021/01/02 01:21:36;;;;;;;72.80;31.70;;;;;;;0.11;83.61;98629.28;2063812;85;21207;-90
2021/01/02 01:24:37;;;;;;;75.90;34.20;;;;;;;0.07;83.61;98627.84;2156804;82;21291;-89
2021/01/02 01:27:39;;;;;;;81.80;33.28;;;;;;;0.06;83.88;98623.64;2063890;86;21136;-90
2021/01/02 01:30:41;;;;;;;72.58;32.23;;;;;;;0.06;83.64;98623.64;2157373;82;21176;-90
2021/01/02 01:33:43;;;;;;;77.97;32.67;;;;;;;0.04;83.80;98626.80;2064007;85;21201;-91
2021/01/02 01:36:44;;;;;;;76.53;32.17;;;;;;;0.04;83.86;98624.23;2156793;82;21282;-90
2021/01/02 01:39:46;;;;;;;80.53;35.25;;;;;;;0.02;83.76;98625.29;2063637;86;21321;-91
2021/01/02 01:42:47;;;;;;;68.65;28.73;;;;;;;0.01;83.74;98624.94;2156860;82;21282;-89
2021/01/02 01:45:49;;;;;;;71.95;31.65;;;;;;;-0.03;83.60;98618.71;2063572;85;21282;-91
2021/01/02 01:48:50;;;;;;;61.25;27.80;;;;;;;-0.06;83.69;98615.09;2156856;82;21722;-90
2021/01/02 01:51:52;;;;;;;79.62;34.05;;;;;;;-0.02;83.86;98619.06;2063477;86;21326;-91
2021/01/02 01:54:57;;;;;;;70.60;30.80;;;;;;;-0.04;83.89;98620.13;2156544;82;21306;-91
2021/01/02 01:57:59;;;;;;;72.70;33.80;;;;;;;-0.08;83.79;98613.58;2063996;85;21179;-90
2021/01/02 02:01:00;;;;;;;68.22;29.25;;;;;;;-0.12;83.87;98618.11;2156848;82;21298;-90
2021/01/02 02:04:02;;;;;;;69.05;30.23;;;;;;;-0.14;83.94;98617.41;2063534;86;21333;-90
2021/01/02 02:07:04;;;;;;;77.65;30.20;;;;;;;-0.14;84.03;98617.88;2156840;82;21316;-91
2021/01/02 02:10:05;;;;;;;73.35;30.30;;;;;;;-0.14;83.95;98613.55;2063720;86;21242;-91
2021/01/02 02:13:07;;;;;;;70.47;28.35;;;;;;;-0.14;83.97;98615.31;2150408;82;21563;-91
2021/01/02 02:16:08;;;;;;;73.70;31.27;;;;;;;-0.19;83.94;98618.21;2150362;83;21163;-90
2021/01/02 02:19:10;;;;;;;70.50;30.40;;;;;;;-0.16;84.17;98620.58;2057363;86;21341;-91
2021/01/02 02:22:11;;;;;;;77.87;30.88;;;;;;;-0.21;83.91;98623.13;2150470;83;21664;-90
2021/01/02 02:25:13;;;;;;;65.37;28.32;;;;;;;-0.25;83.97;98627.69;2150352;82;21156;-91
2021/01/02 02:28:15;;;;;;;82.45;32.58;;;;;;;-0.28;84.14;98617.61;2150637;82;21302;-90
2021/01/02 02:31:16;;;;;;;72.82;32.00;;;;;;;-0.34;84.13;98612.47;2057217;86;21191;-90
2021/01/02 02:34:18;;;;;;;71.92;31.87;;;;;;;-0.38;84.31;98611.50;2150637;82;21322;-90
2021/01/02 02:37:19;;;;;;;60.95;26.37;;;;;;;-0.42;84.33;98613.49;2057595;86;21338;-91
2021/01/02 02:40:21;;;;;;;70.25;28.27;;;;;;;-0.51;84.55;98614.16;2150332;83;21192;-91
2021/01/02 02:43:22;;;;;;;62.38;27.13;;;;;;;-0.69;84.36;98609.89;2057258;86;21164;-91
2021/01/02 02:46:24;;;;;;;71.75;29.60;;;;;;;-0.79;84.62;98620.49;2150634;83;21330;-91
2021/01/02 02:49:25;;;;;;;71.45;31.45;;;;;;;-0.79;85.14;98619.67;2150835;83;21712;-90
2021/01/02 02:52:27;;;;;;;67.97;27.32;;;;;;;-0.78;85.03;98622.13;2057271;86;21163;-90
2021/01/02 02:55:30;;;;;;;71.45;30.43;;;;;;;-0.81;85.23;98619.79;2150362;82;21169;-90
2021/01/02 02:58:31;;;;;;;63.20;28.23;;;;;;;-0.86;85.48;98618.00;2150392;83;21148;-89
2021/01/02 03:01:33;;;;;;;64.37;26.87;;;;;;;-0.93;85.45;98612.94;2150277;83;21144;-89
2021/01/02 03:04:34;;;;;;;79.72;32.80;;;;;;;-0.99;85.72;98618.53;2057250;86;21612;-90
2021/01/02 03:07:36;;;;;;;64.47;28.27;;;;;;;-0.96;85.51;98617.84;2150340;82;21175;-90
2021/01/02 03:10:37;;;;;;;79.20;33.83;;;;;;;-0.88;85.60;98621.16;2059347;86;21198;-90
2021/01/02 03:13:39;;;;;;;83.50;34.70;;;;;;;-0.85;85.66;98626.06;2105073;85;21611;-90
2021/01/02 03:16:41;;;;;;;71.87;30.48;;;;;;;-0.83;85.53;98624.20;2100770;85;21301;-91
2021/01/02 03:19:42;;;;;;;78.02;30.32;;;;;;;-0.79;85.35;98623.06;2104402;85;21155;-90
2021/01/02 03:22:44;;;;;;;66.37;28.85;;;;;;;-0.75;85.23;98615.94;2069751;85;21151;-89
2021/01/02 03:25:46;;;;;;;80.92;31.25;;;;;;;-0.70;85.30;98626.72;2104228;84;21801;-88
2021/01/02 03:28:47;;;;;;;62.93;26.25;;;;;;;-0.72;85.19;98619.59;2063820;86;21328;-91
2021/01/02 03:31:49;;;;;;;68.87;27.75;;;;;;;-0.94;84.98;98608.73;2100382;85;21729;-90
2021/01/02 03:34:50;;;;;;;84.35;34.45;;;;;;;-0.97;85.33;98626.95;2069823;86;21611;-90
2021/01/02 03:37:52;;;;;;;86.53;34.20;;;;;;;-0.97;85.68;98625.20;2104554;84;21334;-90
2021/01/02 03:40:53;;;;;;;71.05;29.67;;;;;;;-0.89;85.53;98623.38;2070044;85;21306;-90
2021/01/02 03:43:54;;;;;;;57.43;26.37;;;;;;;-0.82;85.52;98621.16;2104613;85;21163;-91
2021/01/02 03:46:56;;;;;;;61.88;25.97;;;;;;;-0.78;85.33;98636.73;2063170;86;21167;-90
2021/01/02 03:49:57;;;;;;;57.08;25.48;;;;;;;-0.80;85.15;98635.56;2088478;85;21306;-90
2021/01/02 03:52:59;;;;;;;69.22;29.20;;;;;;;-0.81;85.18;98630.07;2104459;84;21294;-91
2021/01/02 03:56:04;;;;;;;76.28;29.50;;;;;;;-0.85;85.25;98628.63;2069877;86;21199;-91
2021/01/02 03:59:05;;;;;;;62.00;27.75;;;;;;;-0.88;85.27;98632.25;2104542;84;21346;-90
2021/01/02 04:02:07;;;;;;;83.20;33.95;;;;;;;-0.84;85.58;98633.31;2063160;86;21127;-90
2021/01/02 04:05:08;;;;;;;72.82;28.23;;;;;;;-0.97;85.29;98631.63;2100588;85;21564;-90
2021/01/02 04:08:10;;;;;;;71.20;29.35;;;;;;;-1.07;86.02;98624.21;2104556;85;21318;-91
2021/01/02 04:11:11;;;;;;;68.07;29.27;;;;;;;-1.08;85.76;98630.28;2069534;85;21202;-90
2021/01/02 04:14:13;;;;;;;64.05;26.85;;;;;;;-1.02;85.87;98624.69;2104224;84;21277;-91
2021/01/02 04:17:15;;;;;;;66.90;29.60;;;;;;;-0.94;85.84;98615.16;2063000;86;21753;-90
2021/01/02 04:20:16;;;;;;;63.92;27.55;;;;;;;-0.92;85.67;98622.28;2100510;85;21175;-90
2021/01/02 04:23:19;;;;;;;70.78;27.77;;;;;;;-0.92;85.61;98623.09;2104362;83;21187;-90
2021/01/02 04:26:21;;;;;;;79.58;32.53;;;;;;;-0.93;85.64;98622.75;2069794;85;21195;-91
2021/01/02 04:29:22;;;;;;;66.67;27.87;;;;;;;-0.86;85.89;98633.42;2104453;85;21206;-90
2021/01/02 04:32:24;;;;;;;63.98;27.58;;;;;;;-0.78;85.73;98640.12;2063340;86;21337;-90
2021/01/02 04:35:25;;;;;;;82.37;31.42;;;;;;;-0.73;85.60;98644.48;2100847;85;21160;-91
2021/01/02 04:38:27;;;;;;;79.35;31.10;;;;;;;-0.67;85.60;98640.64;2070044;85;21176;-90
2021/01/02 04:41:28;;;;;;;73.20;27.98;;;;;;;-0.64;85.52;98645.11;2104827;85;21171;-91
2021/01/02 04:44:30;;;;;;;76.12;31.68;;;;;;;-0.59;85.58;98650.73;2069956;86;21203;-91
2021/01/02 04:47:31;;;;;;;88.03;34.13;;;;;;;-0.60;85.54;98652.95;2104692;84;21305;-91
2021/01/02 04:50:33;;;;;;;82.10;33.67;;;;;;;-0.55;85.68;98654.35;2063373;86;21143;-90
2021/01/02 04:53:34;;;;;;;82.27;33.30;;;;;;;-0.53;85.72;98652.05;2100461;85;21183;-91
2021/01/02 04:56:36;;;;;;;81.67;30.52;;;;;;;-0.48;85.79;98661.52;2104616;83;21738;-90
2021/01/02 04:59:37;;;;;;;88.35;34.48;;;;;;;-0.45;85.70;98658.75;2070044;85;21183;-89
2021/01/02 05:02:39;;;;;;;74.85;33.53;;;;;;;-0.42;85.64;98652.08;2104523;84;21287;-89
2021/01/02 05:05:40;;;;;;;73.02;31.23;;;;;;;-0.36;85.56;98645.21;2063656;86;21305;-88
2021/01/02 05:08:42;;;;;;;60.45;28.10;;;;;;;-0.35;85.43;98650.70;2100575;85;21333;-89
2021/01/02 05:11:43;;;;;;;75.75;32.70;;;;;;;-0.31;85.32;98646.14;2100131;85;21319;-89
2021/01/02 05:14:45;;;;;;;74.15;29.82;;;;;;;-0.27;85.29;98657.88;2150830;83;21332;-89
2021/01/02 05:17:46;;;;;;;74.58;32.83;;;;;;;-0.26;85.14;98663.84;2150720;82;21699;-89
2021/01/02 05:20:48;;;;;;;74.37;30.92;;;;;;;-0.17;85.41;98667.02;2057474;86;21199;-89
2021/01/02 05:23:49;;;;;;;73.50;30.95;;;;;;;-0.08;85.46;98671.02;2150536;83;21172;-88
2021/01/02 05:26:51;;;;;;;71.85;31.75;;;;;;;0.04;85.28;98672.33;2150363;82;21176;-90
2021/01/02 05:29:52;;;;;;;66.37;29.20;;;;;;;0.11;85.02;98667.08;2057523;86;21734;-90
2021/01/02 05:32:54;;;;;;;67.80;30.17;;;;;;;0.14;84.66;98663.80;2150258;83;21157;-90
2021/01/02 05:35:57;;;;;;;72.70;33.50;;;;;;;0.18;84.52;98665.66;2057703;86;21322;-89
2021/01/02 05:38:59;;;;;;;76.20;32.10;;;;;;;0.15;84.54;98678.78;2150682;82;21137;-90
2021/01/02 05:42:00;;;;;;;70.50;32.53;;;;;;;0.08;84.50;98684.02;2150683;82;21167;-90
2021/01/02 05:45:02;;;;;;;66.42;27.58;;;;;;;0.04;84.67;98683.45;2150283;82;21620;-90
2021/01/02 05:48:03;;;;;;;83.07;32.53;;;;;;;0.00;84.56;98682.05;2150071;82;21195;-89
2021/01/02 05:51:05;;;;;;;65.72;28.85;;;;;;;-0.03;84.70;98684.36;2150351;82;21152;-90
2021/01/02 05:54:06;;;;;;;63.83;26.80;;;;;;;-0.05;84.68;98681.08;2057476;86;21332;-89
2021/01/02 05:57:08;;;;;;;78.62;31.42;;;;;;;-0.14;84.89;98680.94;2150534;82;21183;-89
2021/01/02 06:00:09;;;;;;;78.45;33.10;;;;;;;-0.21;84.89;98676.70;2150563;82;21176;-90
2021/01/02 06:03:11;;;;;;;73.83;31.50;;;;;;;-0.19;85.16;98686.41;2150259;82;21176;-89
2021/01/02 06:06:12;;;;;;;74.60;32.38;;;;;;;-0.11;85.16;98681.52;2057616;86;21314;-90
2021/01/02 06:09:14;;;;;;;68.87;31.20;;;;;;;-0.08;85.25;98683.89;2150297;82;21197;-91
2021/01/02 06:12:15;;;;;;;86.15;34.08;;;;;;;-0.08;85.19;98682.61;2057477;85;21361;-87
2021/01/02 06:15:18;;;;;;;74.95;29.87;;;;;;;-0.06;85.29;98665.28;2150665;82;21310;-88
2021/01/02 06:18:19;;;;;;;76.22;31.77;;;;;;;-0.03;85.17;98659.08;2150381;83;21168;-90
2021/01/02 06:21:21;;;;;;;89.03;36.23;;;;;;;-0.08;85.56;98666.34;2150355;83;21163;-90
2021/01/02 06:24:22;;;;;;;74.62;32.55;;;;;;;-0.10;85.50;98672.05;2057258;86;21176;-90
2021/01/02 06:27:24;;;;;;;59.65;25.00;;;;;;;-0.09;85.51;98682.25;2150297;82;21192;-90
2021/01/02 06:30:25;;;;;;;71.80;30.80;;;;;;;-0.06;85.63;98674.30;2150196;82;21492;-91
2021/01/02 06:33:27;;;;;;;65.65;28.12;;;;;;;-0.02;85.72;98683.89;2150382;82;21147;-91
2021/01/02 06:36:33;;;;;;;64.77;28.95;;;;;;;0.00;85.67;98691.05;2057184;86;21310;-90
2021/01/02 06:39:34;;;;;;;61.73;26.27;;;;;;;0.07;85.70;98693.50;2150210;82;21148;-91
2021/01/02 06:42:37;;;;;;;65.25;28.77;;;;;;;0.18;85.59;98686.27;2150377;83;21177;-90
2021/01/02 06:45:38;;;;;;;64.30;28.77;;;;;;;0.24;85.51;98684.06;2150582;83;21171;-90
2021/01/02 06:48:40;;;;;;;63.25;29.12;;;;;;;0.28;85.43;98691.11;2151227;82;21302;-90
2021/01/02 06:51:41;;;;;;;66.20;29.65;;;;;;;0.27;85.42;98685.13;2057742;86;21369;-91
2021/01/02 06:54:43;;;;;;;59.25;27.70;;;;;;;0.29;85.45;98682.44;2150641;82;22145;-91
2021/01/02 06:57:46;;;;;;;70.15;29.85;;;;;;;0.33;85.52;98681.26;2057550;86;21172;-89
2021/01/02 07:00:47;;;;;;;63.98;28.07;;;;;;;0.36;85.52;98684.88;2150145;82;21668;-90
2021/01/02 07:03:49;;;;;;;69.32;31.27;;;;;;;0.35;85.37;98690.97;2150558;82;21544;-90
2021/01/02 07:06:51;;;;;;;65.35;29.25;;;;;;;0.40;85.45;98692.75;2057753;86;21338;-89
2021/01/02 07:09:53;;;;;;;65.95;28.75;;;;;;;0.45;85.40;98684.19;2150382;82;21152;-89
2021/01/02 07:12:54;;;;;;;64.03;28.20;;;;;;;0.49;85.39;98695.09;2064328;85;21183;-89
2021/01/02 07:15:56;;;;;;;73.05;29.70;;;;;;;0.49;85.37;98691.23;2105183;85;21312;-88
2021/01/02 07:18:57;;;;;;;65.62;29.12;;;;;;;0.52;85.39;98693.56;2101483;85;21212;-90
2021/01/02 07:21:59;;;;;;;61.23;26.27;;;;;;;0.53;85.31;98700.36;2070045;85;21301;-90
2021/01/02 07:25:01;;;;;;;60.65;28.52;;;;;;;0.61;85.36;98700.59;2104698;85;21769;-90
2021/01/02 07:28:02;;;;;;;58.52;26.30;;;;;;;0.65;85.31;98708.46;2069915;85;21150;-90
2021/01/02 07:31:04;;;;;;;56.08;25.50;;;;;;;0.68;85.31;98704.35;2104551;84;21195;-91
2021/01/02 07:34:05;;;;;;;58.40;27.65;;;;;;;0.68;85.21;98714.66;2063546;86;21342;-90
2021/01/02 07:37:07;;;;;;;49.77;23.80;;;;;;;0.69;85.19;98709.85;2100490;85;21298;-89
2021/01/02 07:40:08;;;;;;;54.00;24.72;;;;;;;0.74;85.14;98712.09;2104557;83;21135;-90
2021/01/02 07:43:11;;;;;;;50.85;24.57;;;;;;;0.74;85.16;98719.36;2070273;86;22051;-89
2021/01/02 07:46:13;;;;;;;51.90;22.75;;;;;;;0.72;85.15;98726.36;2104639;84;22381;-90
2021/01/02 07:49:15;;;;;;;55.10;24.05;;;;;;;0.68;85.28;98717.23;2063576;86;21305;-91
2021/01/02 07:52:16;;;;;;;68.70;27.82;;;;;;;0.70;85.20;98720.52;2100444;85;21211;-89
2021/01/02 07:55:18;;;;;;;53.45;25.23;;;;;;;0.72;85.32;98725.55;2069699;85;21654;-89
2021/01/02 07:58:21;;;;;;;50.73;23.52;;;;;;;0.68;85.38;98717.23;2104417;85;21624;-89
2021/01/02 08:01:23;;;;;;;53.28;25.02;;;;;;;0.71;85.67;98719.57;2070627;85;21175;-93
2021/01/02 08:04:25;;;;;;;60.85;27.80;;;;;;;0.74;85.88;98728.37;2104741;84;21338;-90
2021/01/02 08:07:26;;;;;;;53.02;24.23;;;;;;;0.77;85.62;98733.28;2063026;86;21313;-89
2021/01/02 08:10:28;;;;;;;54.03;26.25;;;;;;;0.80;85.56;98724.02;2088758;85;21195;-89
2021/01/02 08:13:29;;;;;;;60.58;28.75;;;;;;;0.87;85.67;98720.98;2096309;85;21312;-89
2021/01/02 08:16:31;;;;;;;55.35;26.50;;;;;;;0.92;85.64;98728.73;2150497;82;21171;-89
2021/01/02 08:19:35;;;;;;;51.83;26.48;;;;;;;0.94;85.52;98737.16;2150826;82;21121;-91
2021/01/02 08:22:38;;;;;;;54.70;26.87;;;;;;;0.98;85.40;98745.46;2150658;82;21160;-88
2021/01/02 08:25:42;;;;;;;47.95;24.47;;;;;;;1.04;85.50;98742.42;2057718;86;21171;-91
2021/01/02 08:28:45;;;;;;;57.83;25.62;;;;;;;1.06;85.44;98730.22;2150765;83;21572;-91
2021/01/02 08:31:47;;;;;;;47.85;22.70;;;;;;;1.05;85.40;98746.17;2150580;82;21615;-92
2021/01/02 08:34:49;;;;;;;51.02;25.30;;;;;;;1.03;85.29;98737.73;2151011;83;21120;-93
2021/01/02 08:37:50;;;;;;;48.10;23.90;;;;;;;0.99;85.26;98728.58;2058287;87;21333;-93
2021/01/02 08:40:54;;;;;;;49.40;24.65;;;;;;;1.06;85.26;98745.70;2151036;82;21286;-92
2021/01/02 08:44:00;;;;;;;48.45;24.30;;;;;;;1.06;85.35;98749.56;2152123;82;21283;-91
2021/01/02 08:47:02;;;;;;;51.98;27.17;;;;;;;1.12;85.38;98764.11;2058585;86;21278;-91
2021/01/02 08:50:03;;;;;;;56.92;26.00;;;;;;;1.21;85.31;98762.58;2151278;82;21205;-93
2021/01/02 08:53:05;;;;;;;49.63;26.37;;;;;;;1.22;85.06;98758.23;2057576;86;21180;-93
2021/01/02 08:56:06;;;;;;;38.80;21.82;;;;;;;1.30;85.13;98761.86;2151316;82;21159;-93
2021/01/02 08:59:08;;;;;;;51.35;29.25;;;;;;;1.40;85.04;98770.98;2133155;83;21164;-93
2021/01/02 09:02:10;;;;;;;45.98;24.45;;;;;;;1.43;85.07;98763.81;2057483;86;21179;-93
2021/01/02 09:05:12;;;;;;;42.27;22.67;;;;;;;1.44;84.92;98759.47;2150623;83;21185;-91
2021/01/02 09:08:14;;;;;;;48.55;26.33;;;;;;;1.52;84.78;98767.43;2131871;83;21723;-90
2021/01/02 09:11:16;;;;;;;52.67;28.07;;;;;;;1.57;84.77;98764.03;2057774;86;21314;-94
2021/01/02 09:14:18;;;;;;;52.73;26.70;;;;;;;1.67;84.61;98770.09;2155956;82;21208;-93
2021/01/02 09:17:20;;;;;;;54.00;28.10;;;;;;;1.80;84.56;98772.52;2064063;85;21175;-93
2021/01/02 09:20:21;;;;;;;56.40;27.07;;;;;;;1.91;84.51;98776.34;2157344;82;21322;-93
2021/01/02 09:23:26;;;;;;;55.30;28.40;;;;;;;2.00;84.39;98775.59;2063582;86;21321;-93
2021/01/02 09:26:27;;;;;;;47.73;26.20;;;;;;;2.09;84.39;98784.37;2156779;82;21319;-93
2021/01/02 09:29:29;;;;;;;52.83;27.82;;;;;;;2.08;84.06;98784.50;2064221;86;21187;-93
2021/01/02 09:32:31;;;;;;;46.77;25.20;;;;;;;2.03;84.00;98781.48;2157327;82;21172;-94
2021/01/02 09:35:32;;;;;;;51.37;27.75;;;;;;;2.06;83.99;98776.06;2063850;86;21753;-93
2021/01/02 09:38:34;;;;;;;48.30;25.27;;;;;;;2.09;83.82;98769.34;2157409;82;21307;-94
2021/01/02 09:41:37;;;;;;;49.03;26.75;;;;;;;2.22;83.99;98773.87;2063835;85;21311;-93
2021/01/02 09:44:38;;;;;;;62.80;30.88;;;;;;;2.24;83.84;98781.02;2157067;82;21321;-93
2021/01/02 09:47:40;;;;;;;57.17;30.10;;;;;;;2.28;83.79;98783.69;2063931;85;21310;-93
2021/01/02 09:50:41;;;;;;;49.35;27.65;;;;;;;2.40;83.91;98783.19;2157187;82;21798;-94
2021/01/02 09:53:43;;;;;;;53.02;28.32;;;;;;;2.49;83.36;98780.66;2063958;86;21183;-94
2021/01/02 09:56:45;;;;;;;53.60;27.85;;;;;;;2.56;83.48;98775.33;2156884;82;21286;-93
2021/01/02 09:59:49;;;;;;;57.50;30.45;;;;;;;2.68;83.56;98770.90;2063921;86;21301;-93
2021/01/02 10:02:50;;;;;;;57.45;27.85;;;;;;;2.73;82.94;98771.80;2157035;82;21179;-93
2021/01/02 10:05:52;;;;;;;48.45;25.60;;;;;;;2.66;83.17;98783.14;2063852;85;21333;-92
2021/01/02 10:08:53;;;;;;;46.18;24.90;;;;;;;2.58;83.08;98779.08;2157193;82;21330;-93
2021/01/02 10:11:55;;;;;;;47.27;23.45;;;;;;;2.43;83.07;98770.00;2063845;85;21290;-93
2021/01/02 10:14:57;;;;;;;44.20;23.77;;;;;;;2.41;82.74;98766.25;2157090;82;21318;-93
2021/01/02 10:17:59;;;;;;;49.38;26.17;;;;;;;2.34;83.05;98774.16;2063774;85;21168;-93
2021/01/02 10:21:00;;;;;;;46.30;24.95;;;;;;;2.32;83.24;98782.52;2157282;82;21179;-94
2021/01/02 10:24:02;;;;;;;49.67;27.55;;;;;;;2.22;83.30;98771.30;2063869;85;21783;-94
2021/01/02 10:27:03;;;;;;;56.25;28.95;;;;;;;2.17;83.35;98769.55;2157091;82;21179;-93
2021/01/02 10:30:05;;;;;;;50.30;26.57;;;;;;;2.13;83.53;98770.75;2047002;86;21136;-93
2021/01/02 10:33:07;;;;;;;47.13;26.12;;;;;;;2.21;83.73;98775.64;2157061;82;21266;-92
2021/01/02 10:36:12;;;;;;;52.60;27.70;;;;;;;2.31;83.51;98773.13;2063915;85;21781;-95
2021/01/02 10:39:13;;;;;;;52.00;26.85;;;;;;;2.45;83.67;98777.96;2157430;82;21306;-95
2021/01/02 10:42:20;;;;;;;55.78;30.97;;;;;;;2.57;83.49;98773.56;2157791;82;21140;-94
2021/01/02 10:45:23;;;;;;;44.63;24.07;;;;;;;2.73;83.41;98775.67;2064081;86;21160;-93
2021/01/02 10:48:25;;;;;;;55.17;28.57;;;;;;;2.90;83.30;98771.67;2157821;82;21271;-94
2021/01/02 10:51:27;;;;;;;52.73;29.23;;;;;;;3.01;83.04;98762.52;2064772;85;21176;-92
2021/01/02 10:54:29;;;;;;;43.95;25.50;;;;;;;3.15;83.01;98762.18;2158202;82;21167;-93
2021/01/02 10:57:34;;;;;;;43.30;24.63;;;;;;;3.30;82.71;98754.41;2064956;86;21338;-94
2021/01/02 11:00:36;;;;;;;47.35;26.57;;;;;;;3.32;82.47;98752.49;2158411;82;21263;-94
2021/01/02 11:03:38;;;;;;;49.45;26.97;;;;;;;3.37;82.53;98753.38;2064442;85;21322;-94
2021/01/02 11:06:50;;;;;;;48.80;26.07;;;;;;;3.41;82.39;98752.99;2157423;82;21160;-96
2021/01/02 11:09:55;;;;;;;54.00;29.50;;;;;;;3.42;82.48;98748.16;2065182;85;21295;-95
2021/01/02 11:12:57;;;;;;;49.90;28.15;;;;;;;3.45;82.35;98746.25;2158049;82;21711;-94
2021/01/02 11:15:58;;;;;;;47.00;26.93;;;;;;;3.53;82.35;98747.69;2065382;85;21758;-93
2021/01/02 11:19:18;;;;;;;45.20;25.45;;;;;;;3.56;81.89;98740.47;2158427;82;21172;-93
2021/01/02 11:22:26;;;;;;;50.17;28.73;;;;;;;3.56;81.89;98742.23;2065588;85;21302;-95
2021/01/02 11:28:50;;;;;;;51.53;30.10;;;;;;;3.64;82.24;98741.91;2158120;82;21287;-92
2021/01/02 11:31:52;;;;;;;56.02;31.05;;;;;;;3.65;81.49;98737.55;2064749;85;21326;-96
2021/01/02 11:34:53;;;;;;;53.33;32.17;;;;;;;3.57;81.51;98732.25;2157403;82;21168;-94
2021/01/02 11:37:55;;;;;;;57.53;34.20;;;;;;;3.55;82.07;98740.12;2064373;85;21727;-93
2021/01/02 11:40:57;;;;;;;56.83;31.45;;;;;;;3.65;82.26;98740.13;2130521;82;21156;-92
2021/01/02 11:43:58;;;;;;;56.02;32.83;;;;;;;3.58;81.52;98727.41;2047286;86;21199;-93
2021/01/02 11:47:02;;;;;;;57.85;32.53;;;;;;;3.52;81.75;98731.82;2158475;82;21307;-95
2021/01/02 11:50:06;;;;;;;59.40;33.23;;;;;;;3.46;81.95;98729.28;2064563;85;21318;-93
2021/01/02 11:53:08;;;;;;;59.65;33.50;;;;;;;3.41;82.03;98729.70;2157396;82;21168;-93
2021/01/02 11:56:09;;;;;;;65.57;35.20;;;;;;;3.39;82.29;98725.14;2064796;86;21204;-94
2021/01/02 11:59:11;;;;;;;74.10;40.70;;;;;;;3.40;82.00;98725.95;2157112;82;21334;-93
2021/01/02 12:02:12;;;;;;;55.43;31.57;;;;;;;3.40;82.08;98724.18;2063872;85;21305;-92
2021/01/02 12:05:14;;;;;;;61.70;33.88;;;;;;;3.42;81.89;98720.97;2157309;82;21286;-92
2021/01/02 12:08:16;;;;;;;55.88;32.70;;;;;;;3.46;82.06;98727.17;2064252;86;21332;-93
2021/01/02 12:11:18;;;;;;;60.73;31.90;;;;;;;3.42;81.93;98731.33;2157056;82;21199;-94
2021/01/02 12:14:20;;;;;;;57.23;30.75;;;;;;;3.38;81.77;98724.80;2060623;85;21355;-93
2021/01/02 12:17:21;;;;;;;54.58;31.52;;;;;;;3.38;82.25;98731.72;2151119;82;21187;-93
2021/01/02 12:20:26;;;;;;;56.75;30.80;;;;;;;3.28;82.12;98732.17;2150469;83;21233;-93
2021/01/02 12:23:28;;;;;;;52.48;30.40;;;;;;;3.28;82.31;98739.94;2057497;86;21655;-93
2021/01/02 12:26:32;;;;;;;58.28;31.50;;;;;;;3.32;82.30;98737.45;2150739;82;21147;-95
2021/01/02 12:29:34;;;;;;;53.20;32.03;;;;;;;3.30;82.27;98736.77;2057470;86;21199;-95
2021/01/02 12:32:36;;;;;;;54.60;29.25;;;;;;;3.35;82.33;98726.81;2150449;83;21191;-94
2021/01/02 12:35:37;;;;;;;58.68;29.98;;;;;;;3.27;82.13;98725.36;2150296;82;21152;-94
2021/01/02 12:38:39;;;;;;;50.65;27.15;;;;;;;3.21;82.22;98719.45;2058065;86;21180;-93
2021/01/02 12:41:41;;;;;;;43.20;25.95;;;;;;;3.11;82.15;98712.48;2152345;82;21738;-95
2021/01/02 12:44:44;;;;;;;48.98;30.37;;;;;;;3.03;82.28;98717.48;2151028;82;21143;-94
2021/01/02 12:47:45;;;;;;;51.85;28.02;;;;;;;2.94;82.33;98708.41;2151854;82;22322;-94
2021/01/02 12:50:47;;;;;;;59.58;33.55;;;;;;;2.92;82.67;98727.91;2057833;86;21302;-94
2021/01/02 12:53:49;;;;;;;57.05;32.60;;;;;;;2.93;82.76;98723.58;2150995;83;21167;-93
2021/01/02 12:56:57;;;;;;;55.52;32.88;;;;;;;2.93;82.86;98724.41;2150674;82;21175;-93
2021/01/02 13:00:07;;;;;;;49.50;29.65;;;;;;;3.02;82.88;98718.92;2133360;83;21334;-93
2021/01/02 13:03:39;;;;;;;52.20;30.27;;;;;;;3.10;82.81;98716.47;2152170;83;21271;-95
2021/01/02 13:25:17;;;;;;;51.65;29.90;;;;;;;2.72;83.85;98739.95;1821071;98;21193;-93
2021/01/02 13:28:21;;;;;;;62.45;36.15;;;;;;;2.67;83.74;98743.89;1892816;94;21240;-92
2021/01/02 13:31:56;;;;;;;;;;;;;;;;;;;;;
2021/01/02 13:34:57;;;;;;;55.75;32.65;;;;;;;2.77;83.99;98738.28;2201012;81;21199;-93
2021/01/02 13:38:05;;;;;;;49.13;30.35;;;;;;;2.85;83.94;98738.45;2201465;81;21142;-92
2021/01/02 13:41:16;;;;;;;48.35;28.98;;;;;;;2.83;83.89;98745.05;2200058;81;21146;-92
2021/01/02 13:44:15;;;;;;;55.75;31.62;;;;;;;2.80;83.99;98746.59;2199331;81;21142;-92
2021/01/02 13:47:29;;;;;;;62.83;36.20;;;;;;;2.78;84.06;98747.20;2200907;81;21110;-93
2021/01/02 13:50:31;;;;;;;66.50;34.18;;;;;;;2.80;84.25;98756.94;2162908;82;21169;-92
2021/01/02 13:53:35;;;;;;;62.85;36.05;;;;;;;2.85;84.17;98766.91;2164091;82;21332;-93
2021/01/02 13:56:37;;;;;;;69.42;39.73;;;;;;;2.87;84.24;98756.42;2163820;82;21316;-92
2021/01/02 13:59:39;;;;;;;62.38;36.33;;;;;;;2.96;84.42;98765.99;2163600;82;21291;-93
2021/01/02 14:02:40;;;;;;;65.52;36.33;;;;;;;2.94;84.22;98762.25;2163043;82;21933;-92
2021/01/02 14:05:42;;;;;;;71.75;38.17;;;;;;;2.96;84.45;98765.52;2163118;82;21157;-92
2021/01/02 14:08:44;;;;;;;72.45;38.65;;;;;;;2.98;84.41;98757.14;2162921;82;21177;-92
2021/01/02 14:11:45;;;;;;;74.25;40.28;;;;;;;3.03;84.26;98758.87;2163415;82;21303;-91
2021/01/02 14:14:49;;;;;;;74.95;40.88;;;;;;;3.03;84.31;98761.47;2163377;82;21601;-92
2021/01/02 14:17:50;;;;;;;75.45;38.92;;;;;;;3.07;84.48;98763.30;2163074;82;21636;-92
2021/01/02 14:20:52;;;;;;;60.80;34.18;;;;;;;3.16;84.57;98763.81;2163204;82;21189;-92
2021/01/02 14:23:54;;;;;;;51.92;31.68;;;;;;;3.11;84.25;98756.46;2131648;82;21168;-93
2021/01/02 14:26:58;;;;;;;70.72;40.85;;;;;;;3.05;84.35;98766.03;2163209;82;21320;-89
2021/01/02 14:29:59;;;;;;;67.82;39.53;;;;;;;3.00;84.39;98772.05;2158413;82;21202;-91